Cheshire, CT

6:50 PM EST on February 28, 2015 (GMT -0500)
Tweed-New Haven | Change Station
CLOSE
Current Station
Airport
Location: New Haven,
Elevation: 13 ft
Nearby Weather Stations
Active Advisory: Winter Storm Watch Active Notice: Record Report

Elev 13 ft 41.26 °N, 72.89 °W | Updated 57 minutes ago

Clear
Clear
27 °F
Feels Like 19 °F
N
8
Wind Variable Wind from SW

Today
High -- | Low -- °F
--% Chance of Precip.
Yesterday
High -- | Low -- °F
Precip. -- in
6:28 AM 5:40 PM
Waxing Gibbous, 81% visible
Pressure 30.73 in
Visibility 10.0 miles
Clouds Few 25000 ft
Windchill 19 °F
Dew Point 12 °F
Humidity 53%
Rainfall 0.00 in
Snow Depth Not available.
UV 0 out of 12
Pollen .40 out of 12
Air Quality Not available.
Flu Activity Not available.
METAR KHVN 282253Z 23007KT 10SM FEW250 M03/M11 A3073 RMK AO2 SLP405 T10281111

More Conditions Fewer Conditions

Pressure 30.73 in
Visibility 10.0 miles
Clouds Few 25000 ft
Windchill 19 °F
Dew Point 12 °F
Humidity 53%
Rainfall 0.00 in
Snow Depth Not available.
UV 0 out of 12
Pollen .40 out of 12
Air Quality Not available.
Flu Activity Not available.
METAR KHVN 282253Z 23007KT 10SM FEW250 M03/M11 A3073 RMK AO2 SLP405 T10281111

More Conditions Fewer Conditions

10-Day Weather Forecast

Almanac

Astronomy

Feb. 28, 2015 Rise Set
Actual Time
Civil Twilight
Nautical Twilight
Astronomical Twilight
Moon
Length of Visible Light
Length of Day
Tomorrow will be .
, % of the Moon is Illuminated

Today's Extremes

State Highs State Lows

Community

WunderPhotos

Upload Photos

1,801,176 photos uploaded!

WunderBlogs® & News

Nearby

Air Quality

  Air Quality AQ Index Pollutant
Not available.

Snow Depth

Station Depth Elevation

Earthquake Activity

City Distance Mag. Time & Date
Minimum magnitude displayed is 2.5.

Coastal Water Temperatures

Place Temperature

Nearby Weather Stations

Winter Storm Watch
Statement as of 3:13 PM EST on February 28, 2015

... Winter Storm Watch in effect from Sunday morning through
Monday morning...

The National Weather Service in New York has issued a Winter
Storm Watch... which is in effect from Sunday morning through
Monday morning.

* Locations... south central and southeastern Connecticut.

* Hazard types... snow.

* Accumulations... 4 to 8 inches of snow.

* Visibilities... 1/4 to 1/2 mile or less at times.

* Timing... snow develops mainly Sunday afternoon... and continues
through Sunday evening. The snow will taper off late Sunday
night.

* Impacts... snow covered surfaces will make travel difficult and
possibly hazardous depending on exactly how much snow falls.

Precautionary/preparedness actions...

A Winter Storm Watch means there is a potential for significant
snow... sleet... or ice accumulations that may impact travel.
Continue to monitor the latest forecasts.



Maloit